Time;durP1;ratioP1;P1;durP2;ratioP2;P2;SDS_P1;SDS_P2;PMS_P1;PMS_P2;Temp;Humidity;BMP_temperature;BMP_pressure;BME280_temperature;BME280_humidity;BME280_pressure;Samples;Min_cycle;Max_cycle;Signal;HPM_P1;HPM_P2
2022/03/18 00:02:11;;;;;;;10.38;3.30;;;21.40;78.80;;;;;;5031333;27;95878;-67
2022/03/18 00:04:42;;;;;;;7.60;2.20;;;21.60;78.80;;;;;;5024185;27;97749;-69
2022/03/18 00:07:13;;;;;;;7.32;2.50;;;21.80;78.00;;;;;;5046527;27;95553;-66
2022/03/18 00:09:44;;;;;;;7.40;2.65;;;21.60;78.60;;;;;;5038667;27;95798;-68
2022/03/18 00:12:15;;;;;;;5.37;2.57;;;21.70;78.80;;;;;;5043670;27;95973;-67
2022/03/18 00:14:46;;;;;;;8.52;2.55;;;21.90;76.70;;;;;;5014068;27;96153;-68
2022/03/18 00:17:17;;;;;;;6.70;2.50;;;21.90;78.00;;;;;;5040043;27;96106;-66
2022/03/18 00:19:52;;;;;;;7.97;2.80;;;22.10;77.90;;;;;;5023319;27;98046;-69
2022/03/18 00:22:22;;;;;;;;;;;22.20;77.40;;;;;;5036822;27;95887;-68
2022/03/18 00:24:54;;;;;;;7.63;2.15;;;22.20;76.80;;;;;;5025506;27;95869;-69
2022/03/18 00:27:26;;;;;;;7.20;3.10;;;22.40;76.20;;;;;;5027151;27;95377;-65
2022/03/18 00:29:58;;;;;;;10.38;3.13;;;22.00;73.60;;;;;;5037772;27;96024;-67
2022/03/18 00:32:30;;;;;;;9.48;2.75;;;21.90;77.70;;;;;;5018065;27;96169;-67
2022/03/18 00:35:01;;;;;;;10.20;2.65;;;22.00;76.90;;;;;;5043684;27;95569;-70
2022/03/18 00:37:32;;;;;;;7.55;2.58;;;22.00;77.40;;;;;;5013709;27;95675;-70
2022/03/18 00:40:05;;;;;;;9.30;2.38;;;22.10;77.00;;;;;;5045633;27;95294;-66
2022/03/18 00:42:36;;;;;;;7.65;3.17;;;22.20;76.10;;;;;;5038981;27;95941;-69
2022/03/18 00:45:09;;;;;;;6.47;2.45;;;22.10;76.20;;;;;;5001071;27;95187;-66
2022/03/18 00:53:18;;;;;;;8.40;2.38;;;22.40;75.20;;;;;;5041050;27;95955;-67
2022/03/18 00:55:49;;;;;;;8.75;1.98;;;22.30;76.00;;;;;;5047822;27;95751;-68
2022/03/18 00:58:20;;;;;;;5.88;2.22;;;22.40;75.80;;;;;;5039375;27;95959;-66
2022/03/18 01:00:52;;;;;;;10.90;2.28;;;22.40;76.30;;;;;;5030544;27;98430;-67
2022/03/18 01:03:23;;;;;;;6.75;2.63;;;22.50;75.40;;;;;;5043222;27;95763;-66
2022/03/18 01:05:55;;;;;;;8.55;2.17;;;22.50;75.40;;;;;;5019577;27;95720;-66
2022/03/18 01:08:26;;;;;;;6.25;2.45;;;22.50;75.30;;;;;;5036625;27;95737;-66
2022/03/18 01:10:58;;;;;;;7.43;2.15;;;22.80;74.70;;;;;;5037425;27;95923;-66
2022/03/18 01:13:30;;;;;;;8.32;2.50;;;22.70;73.40;;;;;;5040410;27;95681;-66
2022/03/18 01:16:01;;;;;;;7.63;2.70;;;22.30;74.20;;;;;;5008318;27;96293;-63
2022/03/18 01:18:33;;;;;;;9.15;2.90;;;22.10;74.20;;;;;;5027558;27;96165;-67
2022/03/18 01:21:04;;;;;;;8.40;2.58;;;22.00;75.20;;;;;;5039131;27;96613;-63
2022/03/18 01:23:35;;;;;;;9.50;3.20;;;21.90;75.10;;;;;;5034794;27;95957;-66
2022/03/18 01:26:06;;;;;;;7.63;2.72;;;21.90;75.40;;;;;;5044823;27;95987;-67
2022/03/18 01:28:36;;;;;;;;;;;21.80;75.70;;;;;;5027444;27;95281;-66
2022/03/18 01:31:07;;;;;;;10.17;3.13;;;21.80;73.30;;;;;;5029038;27;95938;-67
2022/03/18 01:33:38;;;;;;;10.13;3.13;;;21.90;76.90;;;;;;5027266;27;95652;-65
2022/03/18 01:36:11;;;;;;;;;;;21.90;76.20;;;;;;5026579;27;95751;-64
2022/03/18 01:38:41;;;;;;;5.93;2.67;;;22.10;75.50;;;;;;5044879;27;95696;-64
2022/03/18 01:41:11;;;;;;;;;;;22.10;75.30;;;;;;5040883;27;95939;-64
2022/03/18 01:43:47;;;;;;;6.65;2.67;;;22.10;75.30;;;;;;5039503;27;95773;-64
2022/03/18 01:46:18;;;;;;;8.77;2.45;;;22.10;75.40;;;;;;5025047;27;97676;-64
2022/03/18 01:48:50;;;;;;;7.63;2.50;;;22.20;72.90;;;;;;5020720;27;95694;-64
2022/03/18 01:51:22;;;;;;;6.35;1.98;;;22.20;74.50;;;;;;5044325;27;95998;-64
2022/03/18 01:54:44;;;;;;;8.60;3.25;;;22.20;74.90;;;;;;5040364;27;95853;-64
2022/03/18 01:56:44;;;;;;;8.40;2.63;;;22.10;75.20;;;;;;5037604;27;95706;-65
2022/03/18 01:59:16;;;;;;;10.88;2.60;;;22.10;74.20;;;;;;5052599;27;95517;-69
2022/03/18 02:01:46;;;;;;;7.18;2.95;;;22.20;74.50;;;;;;5037944;27;95783;-66
2022/03/18 02:04:18;;;;;;;6.95;2.38;;;22.30;73.20;;;;;;5047765;27;95753;-66
2022/03/18 02:06:50;;;;;;;6.95;2.38;;;22.40;74.20;;;;;;5023970;27;96473;-67
2022/03/18 02:09:22;;;;;;;7.15;2.65;;;22.70;74.30;;;;;;5047535;27;95757;-66
2022/03/18 02:11:54;;;;;;;12.00;2.63;;;22.90;73.80;;;;;;5047519;27;95851;-67
2022/03/18 02:14:40;;;;;;;8.10;2.78;;;22.90;72.70;;;;;;5020787;27;96312;-66
2022/03/18 02:17:14;;;;;;;4.32;1.98;;;22.90;72.20;;;;;;5036295;27;95879;-65
2022/03/18 02:19:48;;;;;;;7.38;2.60;;;23.00;73.10;;;;;;5045290;27;95233;-66
2022/03/18 02:22:21;;;;;;;5.95;2.40;;;23.10;73.20;;;;;;5043224;27;95868;-62
2022/03/18 02:24:54;;;;;;;8.95;2.88;;;23.20;71.90;;;;;;5048570;27;95944;-64
2022/03/18 02:27:25;;;;;;;8.25;3.22;;;23.10;71.50;;;;;;5046103;27;95839;-62
2022/03/18 02:29:55;;;;;;;7.28;2.95;;;23.00;70.90;;;;;;5043996;27;96073;-63
2022/03/18 02:32:26;;;;;;;9.70;3.08;;;22.90;71.50;;;;;;5042708;27;99299;-68
2022/03/18 02:34:57;;;;;;;9.00;2.88;;;23.10;71.30;;;;;;5050507;27;95329;-63
2022/03/18 02:37:29;;;;;;;8.30;2.38;;;23.20;71.70;;;;;;5049272;27;95942;-68
2022/03/18 02:40:02;;;;;;;6.25;2.92;;;23.40;71.40;;;;;;5052367;27;95655;-62
2022/03/18 02:42:31;;;;;;;8.27;2.75;;;23.50;71.40;;;;;;5026310;27;97197;-65
2022/03/18 02:45:04;;;;;;;9.73;3.35;;;23.60;68.80;;;;;;5026112;27;98263;-63
2022/03/18 02:47:39;;;;;;;10.50;3.22;;;23.50;69.90;;;;;;5014711;27;95759;-63
2022/03/18 02:50:12;;;;;;;9.70;3.08;;;23.40;70.10;;;;;;5040381;27;95871;-64
2022/03/18 02:52:45;;;;;;;12.82;3.25;;;23.20;70.00;;;;;;5046589;27;96447;-64
2022/03/18 02:55:18;;;;;;;11.30;3.75;;;23.10;70.30;;;;;;5045333;27;96345;-64
2022/03/18 02:57:50;;;;;;;10.38;3.90;;;22.90;70.50;;;;;;5047673;27;98310;-63
2022/03/18 03:00:25;;;;;;;10.93;3.65;;;22.80;70.60;;;;;;5042823;27;95806;-63
2022/03/18 03:02:55;;;;;;;15.65;4.05;;;22.80;71.00;;;;;;5026503;27;95876;-63
2022/03/18 03:08:16;;;;;;;14.88;4.07;;;22.70;71.40;;;;;;5040411;27;95614;-64
2022/03/18 03:10:47;;;;;;;14.95;3.85;;;22.60;71.40;;;;;;5034578;27;95750;-64
2022/03/18 03:13:19;;;;;;;12.07;3.70;;;22.60;71.40;;;;;;5031828;27;95782;-64
2022/03/18 03:15:50;;;;;;;13.88;4.28;;;22.60;72.30;;;;;;5025753;27;97466;-64
2022/03/18 03:18:21;;;;;;;14.85;4.70;;;22.60;71.90;;;;;;5046697;27;96145;-67
2022/03/18 03:20:52;;;;;;;;;;;22.60;72.00;;;;;;5044626;27;95574;-64
2022/03/18 03:23:25;;;;;;;13.85;3.63;;;22.70;71.90;;;;;;5053182;27;95868;-62
2022/03/18 03:25:57;;;;;;;15.25;4.70;;;22.80;72.00;;;;;;5045860;27;95475;-64
2022/03/18 03:28:27;;;;;;;17.45;4.90;;;22.80;71.90;;;;;;5049293;27;95675;-64
2022/03/18 03:30:57;;;;;;;23.23;4.80;;;22.90;72.10;;;;;;5040488;27;95767;-63
2022/03/18 03:33:28;;;;;;;14.77;3.83;;;22.90;71.90;;;;;;5027054;27;96496;-62
2022/03/18 03:35:59;;;;;;;16.67;4.57;;;22.90;72.30;;;;;;5022896;27;96013;-63
2022/03/18 03:38:30;;;;;;;19.42;5.57;;;23.00;72.00;;;;;;5020240;27;97003;-63
2022/03/18 03:41:02;;;;;;;14.50;4.82;;;23.00;71.70;;;;;;5036696;27;95323;-63
2022/03/18 03:43:32;;;;;;;16.90;4.18;;;22.90;73.20;;;;;;5043352;27;95842;-62
2022/03/18 03:46:02;;;;;;;19.88;4.85;;;23.00;71.50;;;;;;5037363;27;95947;-60
2022/03/18 03:48:33;;;;;;;21.00;4.63;;;23.00;71.50;;;;;;5048990;27;95992;-64
2022/03/18 03:51:05;;;;;;;16.40;4.70;;;23.00;71.40;;;;;;5049270;27;95590;-63
2022/03/18 03:53:36;;;;;;;15.18;4.15;;;22.90;71.20;;;;;;5042447;27;96510;-62
2022/03/18 03:56:07;;;;;;;15.10;4.97;;;22.90;71.50;;;;;;5036364;27;95973;-62
2022/03/18 03:58:38;;;;;;;17.25;4.97;;;22.90;71.40;;;;;;5051683;27;95634;-64
2022/03/18 04:01:09;;;;;;;18.67;4.28;;;23.00;71.30;;;;;;5043100;27;95479;-63
2022/03/18 04:03:39;;;;;;;19.60;4.43;;;23.00;72.20;;;;;;5051626;27;95877;-63
2022/03/18 04:06:10;;;;;;;17.45;4.60;;;23.00;70.90;;;;;;5045412;27;95742;-64
2022/03/18 04:08:41;;;;;;;14.27;4.45;;;23.00;70.30;;;;;;5042897;27;96201;-64
2022/03/18 04:11:11;;;;;;;17.07;4.00;;;23.00;69.90;;;;;;5042440;27;95752;-63
2022/03/18 04:13:43;;;;;;;18.85;4.18;;;23.00;70.40;;;;;;5040150;27;95939;-63
2022/03/18 04:16:17;;;;;;;18.52;4.70;;;23.10;69.90;;;;;;5028733;27;98558;-63
2022/03/18 04:18:50;;;;;;;17.65;4.75;;;23.20;70.30;;;;;;5045986;27;95797;-64
2022/03/18 04:21:20;;;;;;;12.63;4.13;;;23.20;69.80;;;;;;5043066;27;96287;-63
2022/03/18 04:23:52;;;;;;;15.82;4.32;;;23.20;69.90;;;;;;5028521;27;97817;-63
2022/03/18 04:26:22;;;;;;;13.30;4.50;;;23.10;69.20;;;;;;5043981;27;95586;-63
2022/03/18 04:28:53;;;;;;;13.18;4.22;;;23.00;68.70;;;;;;5026244;27;95895;-64
2022/03/18 04:31:23;;;;;;;25.23;5.30;;;23.00;69.80;;;;;;5040503;27;95368;-64
2022/03/18 04:33:54;;;;;;;15.38;5.05;;;23.00;69.10;;;;;;5049561;27;96250;-64
2022/03/18 04:36:25;;;;;;;15.48;4.10;;;22.90;69.30;;;;;;5046808;27;95786;-63
2022/03/18 04:38:55;;;;;;;16.13;5.28;;;22.90;67.70;;;;;;5049368;27;95966;-64
2022/03/18 04:41:26;;;;;;;;;;;22.80;69.60;;;;;;5044516;27;96643;-64
2022/03/18 04:43:57;;;;;;;18.98;4.72;;;22.80;69.30;;;;;;5054050;27;96103;-64
2022/03/18 04:46:28;;;;;;;20.83;5.65;;;22.80;69.50;;;;;;5038349;27;96226;-64
2022/03/18 04:49:00;;;;;;;18.42;4.93;;;22.70;69.50;;;;;;5051586;27;95469;-63
2022/03/18 04:51:31;;;;;;;22.70;5.85;;;22.70;69.40;;;;;;5043239;27;95945;-63
2022/03/18 04:54:03;;;;;;;20.52;4.32;;;22.80;69.10;;;;;;5046047;27;95884;-64
2022/03/18 04:59:23;;;;;;;17.83;4.65;;;22.80;68.90;;;;;;5036120;27;95988;-63
2022/03/18 05:01:54;;;;;;;14.80;4.93;;;22.80;68.40;;;;;;5038956;27;95492;-63
2022/03/18 05:04:24;;;;;;;;;;;22.80;68.10;;;;;;5051434;27;96710;-63
2022/03/18 05:06:56;;;;;;;18.42;5.10;;;22.80;68.00;;;;;;5047138;27;95678;-62
2022/03/18 05:09:27;;;;;;;17.15;4.75;;;22.90;68.50;;;;;;5043786;27;95659;-64
2022/03/18 05:11:58;;;;;;;21.48;5.05;;;22.80;68.10;;;;;;5045022;27;95708;-61
2022/03/18 05:14:31;;;;;;;21.42;5.40;;;22.80;68.00;;;;;;5017533;27;95958;-62
2022/03/18 05:17:03;;;;;;;20.95;5.13;;;22.80;68.20;;;;;;5023150;27;96026;-63
2022/03/18 05:19:34;;;;;;;18.25;4.90;;;22.70;67.90;;;;;;5039660;27;96007;-63
2022/03/18 05:22:06;;;;;;;18.90;5.82;;;22.70;66.10;;;;;;5040553;27;95308;-63
2022/03/18 05:24:38;;;;;;;15.90;4.68;;;22.70;67.60;;;;;;5040638;27;95799;-64
2022/03/18 05:27:08;;;;;;;;;;;22.70;67.60;;;;;;5043027;27;95963;-64
2022/03/18 05:29:38;;;;;;;14.95;4.53;;;22.60;67.10;;;;;;5033208;27;95770;-63
2022/03/18 05:32:08;;;;;;;13.15;4.18;;;22.60;67.10;;;;;;5036195;27;95768;-62
2022/03/18 05:34:40;;;;;;;15.50;3.75;;;22.60;67.20;;;;;;5045064;27;96353;-63
2022/03/18 05:37:11;;;;;;;15.27;4.72;;;22.70;67.40;;;;;;5040808;27;95812;-63
2022/03/18 05:39:42;;;;;;;17.35;4.20;;;22.80;67.20;;;;;;5052435;27;95960;-63
2022/03/18 05:42:12;;;;;;;14.50;4.00;;;22.70;66.10;;;;;;5045601;27;95348;-63
2022/03/18 05:44:42;;;;;;;18.45;4.90;;;22.70;66.70;;;;;;5050607;27;96421;-63
2022/03/18 05:47:14;;;;;;;18.30;4.28;;;22.60;66.50;;;;;;5024427;27;95798;-64
2022/03/18 05:49:46;;;;;;;13.95;4.03;;;22.50;64.20;;;;;;5034209;27;95949;-62
2022/03/18 05:52:16;;;;;;;16.38;4.18;;;22.40;66.40;;;;;;5046228;27;95245;-63
2022/03/18 05:54:46;;;;;;;13.90;4.32;;;22.50;65.90;;;;;;5046327;27;96003;-64
2022/03/18 05:57:19;;;;;;;13.68;3.97;;;22.40;64.20;;;;;;5046221;27;95778;-64
2022/03/18 05:59:50;;;;;;;14.70;4.72;;;22.30;66.40;;;;;;5050292;27;95978;-63
2022/03/18 06:02:20;;;;;;;12.30;3.55;;;22.30;65.90;;;;;;5042116;27;98001;-63
2022/03/18 06:04:50;;;;;;;13.43;4.43;;;22.30;65.70;;;;;;5051232;27;96439;-64
2022/03/18 06:07:22;;;;;;;13.30;4.13;;;22.20;61.30;;;;;;5040072;27;95584;-63
2022/03/18 06:12:44;;;;;;;16.63;4.68;;;22.10;64.50;;;;;;5047771;27;95810;-64
2022/03/18 06:15:16;;;;;;;18.42;5.05;;;22.10;65.80;;;;;;5009394;27;95436;-63
2022/03/18 06:17:48;;;;;;;13.68;4.30;;;22.10;63.80;;;;;;5043279;27;95917;-64
2022/03/18 06:20:19;;;;;;;21.65;4.55;;;22.00;65.30;;;;;;5050075;27;95696;-64
2022/03/18 06:22:50;;;;;;;14.10;3.92;;;21.90;65.90;;;;;;5046199;27;95490;-65
2022/03/18 06:25:23;;;;;;;12.80;3.47;;;22.00;63.70;;;;;;5047982;27;95866;-64
2022/03/18 06:27:54;;;;;;;16.05;4.45;;;22.00;65.00;;;;;;5048779;27;98006;-64
2022/03/18 06:30:29;;;;;;;15.13;4.63;;;22.00;65.30;;;;;;5037922;27;95912;-62
2022/03/18 06:32:59;;;;;;;17.88;4.35;;;22.00;64.90;;;;;;5045305;27;95648;-63
2022/03/18 06:35:31;;;;;;;15.63;4.90;;;21.90;65.00;;;;;;5026693;27;95845;-64
2022/03/18 06:38:02;;;;;;;12.77;3.85;;;21.80;65.10;;;;;;5050045;27;96303;-63
2022/03/18 06:40:36;;;;;;;16.90;4.38;;;21.90;64.10;;;;;;5039021;27;95665;-62
2022/03/18 06:43:07;;;;;;;16.92;4.07;;;21.90;65.20;;;;;;5050248;27;96389;-64
2022/03/18 06:45:38;;;;;;;10.27;4.03;;;21.90;65.20;;;;;;5036538;27;95974;-63
2022/03/18 06:48:09;;;;;;;11.52;4.03;;;21.90;65.80;;;;;;5042179;27;97423;-63
2022/03/18 06:50:39;;;;;;;13.27;4.53;;;21.80;64.00;;;;;;5046847;27;95601;-62
2022/03/18 06:53:10;;;;;;;14.60;3.42;;;21.70;64.20;;;;;;5043180;27;96115;-64
2022/03/18 06:55:41;;;;;;;;;;;21.70;64.60;;;;;;5048041;27;95871;-64
2022/03/18 06:58:11;;;;;;;12.85;3.63;;;21.70;63.30;;;;;;5039748;27;95766;-63
2022/03/18 07:00:42;;;;;;;12.45;3.20;;;21.60;63.90;;;;;;5037609;27;95787;-62
2022/03/18 07:03:13;;;;;;;12.00;3.33;;;21.60;63.90;;;;;;5043595;27;95464;-63
2022/03/18 07:05:48;;;;;;;11.18;2.95;;;21.60;64.10;;;;;;5044999;27;95921;-63
2022/03/18 07:08:20;;;;;;;13.65;3.10;;;21.60;64.10;;;;;;5045701;27;95922;-63
2022/03/18 07:10:52;;;;;;;9.82;2.80;;;21.50;64.60;;;;;;5027223;27;95912;-63
2022/03/18 07:13:24;;;;;;;12.10;3.75;;;21.30;64.90;;;;;;5041269;27;96241;-63
2022/03/18 07:17:54;;;;;;;15.35;4.35;;;21.40;64.80;;;;;;5023999;27;95933;-63
2022/03/18 07:18:47;;;;;;;7.30;2.88;;;21.40;64.20;;;;;;5041429;27;95960;-63
2022/03/18 07:21:18;;;;;;;12.90;3.40;;;21.40;64.20;;;;;;5037180;27;96345;-63
2022/03/18 07:23:49;;;;;;;10.40;3.53;;;21.30;64.50;;;;;;5046727;27;95925;-63
2022/03/18 07:26:20;;;;;;;10.60;2.83;;;21.30;64.10;;;;;;5048052;27;99960;-62
2022/03/18 07:28:51;;;;;;;15.90;3.97;;;21.40;63.90;;;;;;5049020;27;95534;-65
2022/03/18 07:31:21;;;;;;;11.33;3.17;;;21.40;59.60;;;;;;5042772;27;95509;-64
2022/03/18 07:33:52;;;;;;;10.57;3.17;;;21.20;63.20;;;;;;5046196;27;96198;-63
2022/03/18 07:36:24;;;;;;;18.08;3.65;;;21.30;64.20;;;;;;5053214;27;95892;-63
2022/03/18 07:38:54;;;;;;;11.52;3.58;;;21.20;64.90;;;;;;5029059;27;95652;-63
2022/03/18 07:41:28;;;;;;;14.30;3.80;;;21.20;65.10;;;;;;5051272;27;95299;-63
2022/03/18 07:43:59;;;;;;;13.73;3.95;;;21.20;64.50;;;;;;5028180;27;96230;-63
2022/03/18 07:46:29;;;;;;;13.18;3.30;;;21.20;63.50;;;;;;5038055;27;95881;-66
2022/03/18 07:48:59;;;;;;;;;;;21.20;64.30;;;;;;5045930;27;95840;-63
2022/03/18 07:51:31;;;;;;;16.85;3.42;;;21.20;64.60;;;;;;5048691;27;95821;-65
2022/03/18 07:54:03;;;;;;;11.95;3.08;;;21.20;63.70;;;;;;5050370;27;95817;-63
2022/03/18 07:56:34;;;;;;;13.68;3.53;;;21.20;64.40;;;;;;5032037;27;95949;-63
2022/03/18 07:59:06;;;;;;;12.48;3.30;;;21.20;64.00;;;;;;5048911;27;95686;-63
2022/03/18 08:01:38;;;;;;;17.93;3.33;;;21.10;63.90;;;;;;5040369;27;95912;-63
2022/03/18 08:04:12;;;;;;;14.80;3.40;;;21.00;63.00;;;;;;5036944;27;95954;-63
2022/03/18 08:06:44;;;;;;;14.63;3.60;;;21.00;64.30;;;;;;5038009;27;95971;-63
2022/03/18 08:09:14;;;;;;;12.43;3.97;;;21.00;63.70;;;;;;5036576;27;95796;-63
2022/03/18 08:11:45;;;;;;;9.63;3.05;;;21.00;63.20;;;;;;5040108;27;95754;-63
2022/03/18 08:14:17;;;;;;;11.85;2.97;;;20.90;64.80;;;;;;5030201;27;95350;-63
2022/03/18 08:16:49;;;;;;;13.07;3.08;;;20.90;64.60;;;;;;5025790;27;97180;-63
2022/03/18 08:19:19;;;;;;;;;;;21.00;64.20;;;;;;5045891;27;95928;-64
2022/03/18 08:21:50;;;;;;;14.38;4.22;;;21.00;64.10;;;;;;5026256;27;95741;-63
2022/03/18 08:24:22;;;;;;;12.00;3.28;;;20.90;60.50;;;;;;5037506;27;95257;-64
2022/03/18 08:26:52;;;;;;;10.18;3.25;;;20.80;64.60;;;;;;5036425;27;95836;-63
2022/03/18 08:29:23;;;;;;;;;;;20.80;64.70;;;;;;5029459;27;96169;-62
2022/03/18 08:31:53;;;;;;;12.32;3.20;;;20.70;60.60;;;;;;5040403;27;98217;-63
2022/03/18 08:34:24;;;;;;;;;;;20.60;65.20;;;;;;5042880;27;96114;-63
2022/03/18 08:36:54;;;;;;;11.00;3.88;;;20.50;64.70;;;;;;5041165;27;96033;-63
2022/03/18 08:39:24;;;;;;;12.48;3.33;;;20.60;65.00;;;;;;5041477;27;96188;-63
2022/03/18 08:41:57;;;;;;;11.00;2.78;;;20.60;65.50;;;;;;5047527;27;95722;-63
2022/03/18 08:44:28;;;;;;;9.45;3.05;;;20.50;65.50;;;;;;5041995;27;95859;-63
2022/03/18 08:46:58;;;;;;;;;;;20.60;65.70;;;;;;5032466;27;96271;-64
2022/03/18 08:49:29;;;;;;;9.80;3.30;;;20.60;65.30;;;;;;5045251;27;95796;-64
2022/03/18 08:52:00;;;;;;;12.03;3.13;;;20.60;65.30;;;;;;5042806;27;95775;-62
2022/03/18 08:54:32;;;;;;;15.15;3.28;;;20.60;65.60;;;;;;5036143;27;95767;-63
2022/03/18 08:57:03;;;;;;;;;;;20.60;65.60;;;;;;5030108;27;95774;-63
2022/03/18 08:59:34;;;;;;;9.65;2.95;;;20.40;65.80;;;;;;5043918;27;95976;-65
2022/03/18 09:02:05;;;;;;;8.05;2.97;;;20.40;66.10;;;;;;5021145;27;95913;-64
2022/03/18 09:04:37;;;;;;;17.25;3.60;;;20.30;65.50;;;;;;5030641;27;96140;-63
2022/03/18 09:07:13;;;;;;;7.80;2.88;;;20.30;66.10;;;;;;5037942;27;97543;-63
2022/03/18 09:09:44;;;;;;;12.40;3.65;;;20.30;64.10;;;;;;5042750;27;96993;-63
2022/03/18 09:12:19;;;;;;;;;;;20.30;66.10;;;;;;5046052;27;95988;-63
2022/03/18 09:14:51;;;;;;;12.13;3.22;;;20.10;66.10;;;;;;5032386;27;98231;-64
2022/03/18 09:17:22;;;;;;;13.95;3.63;;;20.00;66.90;;;;;;5030933;27;95962;-65
2022/03/18 09:19:53;;;;;;;18.42;3.92;;;20.00;66.90;;;;;;5045584;27;95857;-62
2022/03/18 09:22:24;;;;;;;12.90;3.00;;;20.10;66.50;;;;;;5042551;27;95640;-63
2022/03/18 09:24:55;;;;;;;16.83;3.35;;;19.90;67.40;;;;;;5050065;27;95994;-62
2022/03/18 09:27:26;;;;;;;14.63;3.88;;;19.90;66.80;;;;;;5041090;27;97105;-66
2022/03/18 09:29:59;;;;;;;22.20;3.88;;;19.80;67.10;;;;;;5028381;27;99172;-63
2022/03/18 09:32:34;;;;;;;16.00;3.65;;;19.70;67.40;;;;;;5033112;27;96059;-63
2022/03/18 09:35:05;;;;;;;13.25;3.05;;;19.60;68.40;;;;;;5045737;27;95970;-63
2022/03/18 09:37:37;;;;;;;9.95;2.63;;;19.60;67.30;;;;;;5022807;27;96214;-62
2022/03/18 09:40:09;;;;;;;11.95;2.80;;;19.40;68.10;;;;;;5044043;27;96012;-63
2022/03/18 09:43:01;;;;;;;;;;;19.60;68.80;;;;;;5039475;27;95926;-63
2022/03/18 09:45:38;;;;;;;14.35;3.35;;;19.60;67.70;;;;;;5037872;27;95794;-64
2022/03/18 09:48:15;;;;;;;15.85;3.55;;;19.60;69.00;;;;;;5036029;27;95910;-62
2022/03/18 09:50:45;;;;;;;13.27;3.72;;;19.50;67.40;;;;;;5036428;27;95952;-62
2022/03/18 09:53:18;;;;;;;10.00;2.65;;;19.40;68.80;;;;;;5039037;27;97756;-63
2022/03/18 09:55:54;;;;;;;20.75;4.15;;;19.50;68.40;;;;;;5041181;27;96412;-63
2022/03/18 09:58:25;;;;;;;11.82;3.25;;;19.30;68.80;;;;;;5042077;27;95983;-63
2022/03/18 10:01:01;;;;;;;17.27;3.95;;;19.30;69.60;;;;;;5038720;27;96539;-62
2022/03/18 10:03:40;;;;;;;13.55;2.95;;;19.40;69.60;;;;;;5034226;27;96920;-62
2022/03/18 10:06:11;;;;;;;7.07;2.58;;;19.50;69.20;;;;;;5036498;27;95362;-63
2022/03/18 10:08:45;;;;;;;13.32;3.00;;;19.60;68.50;;;;;;5043081;27;96811;-63
2022/03/18 10:11:20;;;;;;;15.80;3.17;;;19.50;64.50;;;;;;5025473;27;95889;-63
2022/03/18 10:14:08;;;;;;;10.40;2.50;;;19.50;69.50;;;;;;5017659;27;95976;-62
2022/03/18 10:16:50;;;;;;;15.32;3.47;;;19.50;69.40;;;;;;5026164;27;96723;-63
2022/03/18 10:19:25;;;;;;;12.52;2.90;;;19.40;70.00;;;;;;5039665;27;95912;-64
2022/03/18 10:22:09;;;;;;;11.20;2.78;;;19.30;69.10;;;;;;5027827;27;97573;-66
2022/03/18 10:24:42;;;;;;;10.15;2.90;;;19.40;69.70;;;;;;5042056;27;95905;-66
2022/03/18 10:27:21;;;;;;;15.80;3.35;;;19.60;68.80;;;;;;5041064;27;95716;-66
2022/03/18 10:29:54;;;;;;;14.50;3.15;;;19.60;68.20;;;;;;5037720;27;96603;-66
2022/03/18 10:32:31;;;;;;;10.35;2.75;;;19.70;68.90;;;;;;5030795;27;96002;-65
2022/03/18 10:37:53;;;;;;;12.18;3.20;;;19.80;68.20;;;;;;5040202;27;96014;-65
2022/03/18 10:40:37;;;;;;;11.65;2.47;;;19.90;68.00;;;;;;5038801;27;95888;-66
2022/03/18 10:43:11;;;;;;;8.43;3.15;;;19.90;68.10;;;;;;5019870;27;97316;-65
2022/03/18 10:46:00;;;;;;;12.80;2.80;;;19.80;68.30;;;;;;5029575;27;95694;-66
2022/03/18 10:48:32;;;;;;;6.30;1.90;;;19.80;68.50;;;;;;5036241;27;96395;-69
2022/03/18 10:51:07;;;;;;;10.85;2.38;;;19.80;68.90;;;;;;5037978;27;96962;-67
2022/03/18 10:53:39;;;;;;;10.50;2.47;;;19.80;68.70;;;;;;5025287;27;95671;-65
2022/03/18 10:56:11;;;;;;;13.05;2.78;;;19.80;68.90;;;;;;5027629;27;95684;-69
2022/03/18 10:58:44;;;;;;;10.27;2.45;;;19.70;69.60;;;;;;5027555;27;95883;-65
2022/03/18 11:01:15;;;;;;;14.10;3.47;;;19.60;65.60;;;;;;5035230;27;95895;-65
2022/03/18 11:03:46;;;;;;;6.88;2.58;;;19.80;70.10;;;;;;5041874;27;95603;-65
2022/03/18 11:06:19;;;;;;;10.90;2.30;;;19.60;70.60;;;;;;5043326;27;95972;-65
2022/03/18 11:08:50;;;;;;;7.50;2.22;;;19.40;70.70;;;;;;5040189;27;95915;-65
2022/03/18 11:11:24;;;;;;;9.90;2.60;;;19.50;71.30;;;;;;5040701;27;96445;-64
2022/03/18 11:14:03;;;;;;;9.55;2.33;;;19.60;71.20;;;;;;5032498;27;95820;-65
2022/03/18 11:16:40;;;;;;;5.15;1.75;;;19.80;70.30;;;;;;5028370;27;96033;-65
2022/03/18 11:19:16;;;;;;;6.30;2.05;;;19.80;70.80;;;;;;5039814;27;95926;-65
2022/03/18 11:21:52;;;;;;;4.35;1.42;;;19.80;70.60;;;;;;5018976;27;96596;-65
2022/03/18 11:24:25;;;;;;;5.25;2.08;;;19.90;70.40;;;;;;5042695;27;95818;-65
2022/03/18 11:26:56;;;;;;;8.35;2.88;;;19.80;71.10;;;;;;5017930;27;96651;-65
2022/03/18 11:29:29;;;;;;;7.38;2.00;;;19.60;71.50;;;;;;5040087;27;95928;-65
2022/03/18 11:32:12;;;;;;;9.68;2.38;;;19.80;71.20;;;;;;5035204;27;95880;-65
2022/03/18 11:35:06;;;;;;;7.50;2.15;;;19.60;71.90;;;;;;5040327;27;97847;-65
2022/03/18 11:37:38;;;;;;;7.85;2.33;;;19.30;72.70;;;;;;5040255;27;95894;-65
2022/03/18 11:40:27;;;;;;;12.93;3.10;;;19.20;73.10;;;;;;5042375;27;95680;-64
2022/03/18 11:42:57;;;;;;;9.10;2.80;;;19.20;73.20;;;;;;5038846;27;96665;-64
2022/03/18 11:45:42;;;;;;;4.78;1.77;;;19.00;74.10;;;;;;5034842;27;97687;-65
2022/03/18 11:48:36;;;;;;;6.15;2.50;;;18.90;74.80;;;;;;5044258;27;96156;-65
2022/03/18 11:51:36;;;;;;;10.40;2.88;;;19.00;74.20;;;;;;5042198;27;95809;-65
2022/03/18 11:54:16;;;;;;;5.55;1.80;;;18.90;74.20;;;;;;5042700;27;96529;-65
2022/03/18 11:56:52;;;;;;;8.60;2.47;;;19.20;74.00;;;;;;5044621;27;96038;-65
2022/03/18 11:59:29;;;;;;;8.15;2.58;;;19.00;74.10;;;;;;5041342;27;96620;-65
2022/03/18 12:02:06;;;;;;;8.73;2.25;;;19.00;73.60;;;;;;5033922;27;96027;-65
2022/03/18 12:04:46;;;;;;;9.05;2.75;;;18.80;74.90;;;;;;5042166;27;96694;-65
2022/03/18 12:07:25;;;;;;;8.10;2.57;;;18.80;75.10;;;;;;5040576;27;98043;-64
2022/03/18 12:09:57;;;;;;;8.32;2.63;;;19.00;74.00;;;;;;5043230;27;95609;-67
2022/03/18 12:12:32;;;;;;;6.43;2.10;;;19.10;73.30;;;;;;5043266;27;95663;-67
2022/03/18 12:15:18;;;;;;;7.40;2.47;;;19.00;74.50;;;;;;5034019;27;96740;-65
2022/03/18 12:17:52;;;;;;;4.82;1.65;;;19.20;74.00;;;;;;5028724;27;104423;-69
2022/03/18 12:20:31;;;;;;;6.57;2.08;;;19.40;73.60;;;;;;5033878;27;95980;-68
2022/03/18 12:23:10;;;;;;;8.27;2.50;;;19.60;73.00;;;;;;5049041;27;95800;-68
2022/03/18 12:25:41;;;;;;;6.32;1.85;;;19.60;72.80;;;;;;5050893;27;95759;-69
2022/03/18 12:28:12;;;;;;;3.67;1.88;;;19.80;72.40;;;;;;5032038;27;96063;-66
2022/03/18 12:30:45;;;;;;;6.57;1.98;;;19.90;72.00;;;;;;5041587;27;95768;-68
2022/03/18 12:33:17;;;;;;;5.18;1.95;;;19.90;72.20;;;;;;5048150;27;95855;-70
2022/03/18 12:35:48;;;;;;;9.00;2.22;;;19.80;71.60;;;;;;5050756;27;97490;-67
2022/03/18 12:38:21;;;;;;;2.75;1.75;;;19.80;72.80;;;;;;5050044;27;95879;-66
2022/03/18 12:40:58;;;;;;;5.38;1.92;;;19.90;72.50;;;;;;5029067;27;96101;-65
2022/03/18 12:43:32;;;;;;;6.57;2.15;;;20.00;72.70;;;;;;5049050;27;96250;-66
2022/03/18 12:46:08;;;;;;;2.75;1.58;;;20.10;71.10;;;;;;5021762;27;97078;-67
2022/03/18 12:48:47;;;;;;;4.78;1.58;;;20.20;72.00;;;;;;5049971;27;95251;-69
2022/03/18 12:51:19;;;;;;;5.70;1.83;;;20.30;70.90;;;;;;5053123;27;95236;-66
2022/03/18 12:53:53;;;;;;;8.55;1.90;;;20.50;71.10;;;;;;5052655;27;96034;-70
2022/03/18 12:56:44;;;;;;;2.90;1.20;;;20.50;70.50;;;;;;5037661;27;95777;-71
2022/03/18 12:59:17;;;;;;;4.55;1.73;;;20.80;70.30;;;;;;5050584;27;95976;-69
2022/03/18 13:01:56;;;;;;;7.30;2.47;;;20.90;70.10;;;;;;5042360;27;95897;-70
2022/03/18 13:04:27;;;;;;;8.55;1.95;;;20.80;70.20;;;;;;5052183;27;95759;-67
2022/03/18 13:06:58;;;;;;;6.55;2.00;;;20.80;70.20;;;;;;5050661;27;95912;-69
2022/03/18 13:09:49;;;;;;;8.23;2.10;;;20.80;69.30;;;;;;5050597;27;95731;-67
2022/03/18 13:12:27;;;;;;;3.90;1.83;;;20.80;67.80;;;;;;5050445;27;95327;-67
2022/03/18 13:14:59;;;;;;;7.38;1.90;;;20.80;70.70;;;;;;5036752;27;96658;-70
2022/03/18 13:17:32;;;;;;;4.10;1.70;;;20.90;70.20;;;;;;5038558;27;95981;-72
2022/03/18 13:20:04;;;;;;;5.05;1.98;;;20.90;70.20;;;;;;5031848;27;96461;-72
2022/03/18 13:22:35;;;;;;;4.32;1.60;;;20.90;70.20;;;;;;5049530;27;95798;-68
2022/03/18 13:25:05;;;;;;;;;;;21.10;69.40;;;;;;5046155;27;95764;-65
2022/03/18 13:27:38;;;;;;;1.63;1.10;;;21.00;69.10;;;;;;5049177;27;95796;-64
2022/03/18 13:33:00;;;;;;;4.38;1.50;;;21.00;69.40;;;;;;5001540;28;95773;-64
2022/03/18 13:35:32;;;;;;;6.47;1.55;;;21.00;70.00;;;;;;5059064;27;96099;-64